三亜 の空港の天気 - METARとTAF

三亜鳳凰国際空港 ( ZJSY / SYX ) - 中国 海南省三亜市
飛行場実況気象(Metar)
観測時間08/25 23:00 CST (08/25 15:00 UTC)
風向・風速北北西 2m/s
視程10km以上
天気現象
少しの雲 雲底高度 520m
気温28℃
湿度84%
気圧1005hPa
METARZJSY 251500Z 33002MPS 300V360 9999 FEW017 28/25 Q1005 NOSIG
過去の天気等 Google飛行場航空写真 Wunderground天気予報

過去48時間のMETAR

飛行場予報(TAF)
発表時間: 8/25 17:01 CST (8/25 09:01 UTC)
予報対象時間: 25日20時 CST ~ 26日20時 CST
風向・風速西 4m/s
視程10km以上
少しの雲 雲底高度 610m
TAF ZJSY 250901Z 2512/2612 26004MPS 9999 FEW020 TX32/2606Z TN26/2521Z